Strona główna
METAR-TAF:

METAR-TAF

Lotnisko :

Port lotniczy Szanghaj-Pudong

Szanghaj-Pudong, Chiny

Szerokość geograficzna: 31-07N, Długość geograficzna: 121-46E, wysokość: 4 m

Aktualna obserwacja pogody

Raport powstał 38 minut temu, godzina 06:30 UTC
Wiatr 14 kt od północny wschód w porywach dochodzący do 23 kt
Temperatura 16°C
Wilgotność 55%
Ciśnienie 1022 hPa
Widzialność 10 km lub więcej
Brak chmur poniżej 1500 m i brak chmur cumulonimbus

METAR: ZSPD 170630Z 04007G12MPS CAVOK 16/07 Q1022 NOSIG

czas: 15:08 (07:08 UTC)

Prognoza

Raport powstał 3 godziny i 44 minut temu, godzina 03:24 UTC
Prognoza ważna od 17 godzina 06 UTC do 18 godzina 06 UTC
Wiatr 8 kt od północny wschód
Widzialność: 6000 m
Rozproszone chmury na wysokości 2000 ft

TAF: ZSPD 170324Z 1706/1806 05004MPS 6000 SCT020 TX18/1706Z TN11/1721Z

Obserwacja i prognoza pogody dla ponad 4000 lotnisk (raport METAR i TAF).

Dostępne stacje oznaczono żółtymi i czerwonymi punktami na mapie.

Najedź kursorem aby zobaczyć nazwę stacji.

Kliknij aby zobaczyć obserwacje i prognozy pogody.

Aby zmienić mapę: kliknij na zielony przycisk z czarnym krzyżykiem, aby powiększyć; na zielony przycisk z myślnikiem, aby pomniejszyć; na zielone strzałki, aby przejść do map sąsiednich.


METAR-TAF: